Alpaugh, California
Current Conditions -  °F | °C
As of 2:15 AM on Monday 26 Jan 2015 (Local Time) from KPTV Reporting Station
Clear Clear  
Wind Chill:   Ceiling: Unl
Heat Index:   Visibility: 2.5mi
Dew Point:   Wind: 3mph
Humidity: 87%   Direction: 200°SSW
Pressure: 30.07"   Gusts: NA
Location:  35.89°N, 119.49°W
Report Text: KPTV 261015Z AUTO 20003KT 2 1/2SM CLR 03/01 A3007 RMK AO1
Loading
Personal Weather Stations






























Interactive Weather Map New forecast layout! Learn more

10-Day Weather Forecast

Advertisements
Track Severe Weather on mobile